createdAt,value
2018-03-23T00:00:11.160Z,96989.35
2018-03-23T00:00:42.795Z,96992.67
2018-03-23T00:01:14.422Z,96987.23
2018-03-23T00:01:46.057Z,96994.82
2018-03-23T00:02:17.682Z,96988.02
2018-03-23T00:02:49.310Z,96985.45
2018-03-23T00:03:20.938Z,96988.83
2018-03-23T00:03:52.577Z,96984.60
2018-03-23T00:04:24.206Z,96989.03
2018-03-23T00:04:55.878Z,96986.73
2018-03-23T00:05:27.507Z,96983.36
2018-03-23T00:05:59.135Z,96985.81
2018-03-23T00:06:30.843Z,96984.53
2018-03-23T00:07:02.475Z,96992.13
2018-03-23T00:07:34.098Z,96987.84
2018-03-23T00:08:05.726Z,96981.95
2018-03-23T00:08:37.356Z,96989.18
2018-03-23T00:09:08.986Z,96983.78
2018-03-23T00:09:40.610Z,96984.64
2018-03-23T00:10:12.235Z,96984.63
2018-03-23T00:10:43.863Z,96982.47
2018-03-23T00:11:15.485Z,96982.89
2018-03-23T00:11:47.115Z,96979.94
2018-03-23T00:12:18.798Z,96982.41
2018-03-23T00:12:50.421Z,96983.31
2018-03-23T00:13:22.042Z,96973.98
2018-03-23T00:13:53.666Z,96980.27
2018-03-23T00:14:25.290Z,96978.66
2018-03-23T00:14:56.914Z,96985.44
2018-03-23T00:15:28.537Z,96978.98
2018-03-23T00:16:00.166Z,96979.77
2018-03-23T00:16:31.790Z,96979.42
2018-03-23T00:17:03.414Z,96985.67
2018-03-23T00:17:35.094Z,96987.72
2018-03-23T00:18:06.722Z,96980.34
2018-03-23T00:18:38.351Z,96982.58
2018-03-23T00:19:09.979Z,96985.55
2018-03-23T00:19:41.631Z,96985.53
2018-03-23T00:20:13.258Z,96984.08
2018-03-23T00:20:44.882Z,96982.64
2018-03-23T00:21:16.511Z,96987.03
2018-03-23T00:21:48.134Z,96983.68
2018-03-23T00:22:19.754Z,96981.42
2018-03-23T00:22:51.435Z,96984.17
2018-03-23T00:23:23.058Z,96983.68
2018-03-23T00:23:54.682Z,96986.30
2018-03-23T00:24:26.306Z,96981.56
2018-03-23T00:24:57.935Z,96976.94
2018-03-23T00:25:29.561Z,96985.27
2018-03-23T00:26:01.192Z,96985.09
2018-03-23T00:26:32.823Z,96983.83
2018-03-23T00:27:04.446Z,96981.19
2018-03-23T00:27:36.075Z,96977.25
2018-03-23T00:28:07.742Z,96986.49
2018-03-23T00:28:39.362Z,96980.55
2018-03-23T00:29:10.992Z,96981.86
2018-03-23T00:29:42.618Z,96977.69
2018-03-23T00:30:14.243Z,96977.69
2018-03-23T00:30:45.871Z,96978.52
2018-03-23T00:31:17.504Z,96979.73
2018-03-23T00:31:49.131Z,96978.52
2018-03-23T00:32:20.814Z,96979.07
2018-03-23T00:32:52.438Z,96974.20
2018-03-23T00:33:24.066Z,96978.04
2018-03-23T00:33:55.690Z,96976.39
2018-03-23T00:34:27.315Z,96975.38
2018-03-23T00:34:58.941Z,96976.81
2018-03-23T00:35:30.574Z,96974.27
2018-03-23T00:36:02.202Z,96970.58
2018-03-23T00:36:33.835Z,96970.11
2018-03-23T00:37:05.458Z,96972.33
2018-03-23T00:37:37.135Z,96973.05
2018-03-23T00:38:08.775Z,96972.27
2018-03-23T00:38:40.401Z,96977.36
2018-03-23T00:39:12.030Z,96975.37
2018-03-23T00:39:43.658Z,96973.53
2018-03-23T00:40:15.282Z,96972.81
2018-03-23T00:40:46.910Z,96974.80
2018-03-23T00:41:18.534Z,96971.33
2018-03-23T00:41:50.162Z,96972.09
2018-03-23T00:42:21.785Z,96970.02
2018-03-23T00:42:53.466Z,96969.36
2018-03-23T00:43:25.090Z,96967.61
2018-03-23T00:43:56.714Z,96947.86
2018-03-23T00:44:28.349Z,96967.61
2018-03-23T00:44:59.970Z,96960.36
2018-03-23T00:45:31.598Z,96966.63
2018-03-23T00:46:03.222Z,96961.72
2018-03-23T00:46:34.845Z,96962.56
2018-03-23T00:47:06.469Z,96954.55
2018-03-23T00:47:38.098Z,96959.23
2018-03-23T00:48:09.722Z,96960.84
2018-03-23T00:48:41.346Z,96958.74
2018-03-23T00:49:12.970Z,96962.41
2018-03-23T00:49:44.590Z,96958.56
2018-03-23T00:50:16.214Z,96959.75
2018-03-23T00:50:47.838Z,96963.98
2018-03-23T00:51:19.462Z,96962.70
2018-03-23T00:51:51.091Z,96958.11
2018-03-23T00:52:22.722Z,96966.02
2018-03-23T00:52:54.346Z,96961.36
2018-03-23T00:53:25.972Z,96960.46
2018-03-23T00:53:57.594Z,96959.55
2018-03-23T00:54:29.262Z,96956.44
2018-03-23T00:55:00.898Z,96961.96
2018-03-23T00:55:32.526Z,96959.95
2018-03-23T00:56:04.150Z,96954.14
2018-03-23T00:56:35.775Z,96956.41
2018-03-23T00:57:07.398Z,96957.93
2018-03-23T00:57:39.022Z,96956.75
2018-03-23T00:58:10.657Z,96952.53
2018-03-23T00:58:42.331Z,96955.42
2018-03-23T00:59:13.956Z,96956.75
2018-03-23T00:59:45.578Z,96956.66
2018-03-23T01:00:17.207Z,96955.36
2018-03-23T01:00:48.830Z,96955.42
2018-03-23T01:01:20.453Z,96957.16
2018-03-23T01:01:52.078Z,96951.64
2018-03-23T01:02:23.702Z,96952.08
2018-03-23T01:02:55.326Z,96944.99
2018-03-23T01:03:26.949Z,96950.73
2018-03-23T01:03:58.629Z,96946.98
2018-03-23T01:04:30.263Z,96948.67
2018-03-23T01:05:01.898Z,96944.08
2018-03-23T01:05:33.523Z,96944.97
2018-03-23T01:06:05.150Z,96941.98
2018-03-23T01:06:36.779Z,96944.94
2018-03-23T01:07:08.402Z,96947.44
2018-03-23T01:07:40.030Z,96950.89
2018-03-23T01:08:11.658Z,96954.23
2018-03-23T01:08:43.326Z,96949.28
2018-03-23T01:09:14.955Z,96953.55
2018-03-23T01:09:46.586Z,96950.60
2018-03-23T01:10:18.206Z,96946.05
2018-03-23T01:10:49.849Z,96951.33
2018-03-23T01:11:21.474Z,96946.32
2018-03-23T01:11:53.097Z,96944.12
2018-03-23T01:12:24.765Z,96946.16
2018-03-23T01:12:56.398Z,96944.52
2018-03-23T01:13:28.027Z,96949.64
2018-03-23T01:13:59.653Z,96940.47
2018-03-23T01:14:31.309Z,96946.27
2018-03-23T01:15:02.935Z,96945.90
2018-03-23T01:15:34.565Z,96943.78
2018-03-23T01:16:06.206Z,96945.57
2018-03-23T01:16:37.833Z,96945.06
2018-03-23T01:17:09.459Z,96935.95
2018-03-23T01:17:41.082Z,96935.90
2018-03-23T01:18:12.716Z,96931.27
2018-03-23T01:18:44.337Z,96928.72
2018-03-23T01:19:15.967Z,96935.72
2018-03-23T01:19:47.590Z,96929.00
2018-03-23T01:20:19.222Z,96931.11
2018-03-23T01:20:50.849Z,96930.77
2018-03-23T01:21:22.477Z,96928.31
2018-03-23T01:21:54.107Z,96923.02
2018-03-23T01:22:25.729Z,96922.73
2018-03-23T01:22:57.399Z,96921.82
2018-03-23T01:23:29.023Z,96919.73
2018-03-23T01:24:00.647Z,96923.57
2018-03-23T01:24:33.310Z,96922.30
2018-03-23T01:25:04.947Z,96927.47
2018-03-23T01:25:36.570Z,96923.15
2018-03-23T01:26:08.198Z,96918.95
2018-03-23T01:26:39.823Z,96919.63
2018-03-23T01:27:11.506Z,96917.94
2018-03-23T01:27:43.138Z,96924.00
2018-03-23T01:28:14.762Z,96920.65
2018-03-23T01:28:46.391Z,96918.45
2018-03-23T01:29:18.018Z,96919.28
2018-03-23T01:29:49.650Z,96919.74
2018-03-23T01:30:21.274Z,96921.71
2018-03-23T01:30:52.898Z,96928.19
2018-03-23T01:31:24.531Z,96930.69
2018-03-23T01:31:56.167Z,96931.63
2018-03-23T01:32:27.799Z,96932.41
2018-03-23T01:32:59.422Z,96936.28
2018-03-23T01:33:31.055Z,96945.20
2018-03-23T01:34:02.687Z,96940.14
2018-03-23T01:34:34.314Z,96941.81
2018-03-23T01:35:05.942Z,96945.83
2018-03-23T01:35:37.618Z,96948.96
2018-03-23T01:36:09.247Z,96942.59
2018-03-23T01:36:40.874Z,96943.28
2018-03-23T01:37:12.498Z,96943.44
2018-03-23T01:37:44.130Z,96940.80
2018-03-23T01:38:15.758Z,96942.09
2018-03-23T01:38:47.384Z,96938.70
2018-03-23T01:39:19.015Z,96933.68
2018-03-23T01:39:50.642Z,96937.84
2018-03-23T01:40:22.274Z,96935.77
2018-03-23T01:40:53.938Z,96937.33
2018-03-23T01:41:25.570Z,96936.45
2018-03-23T01:41:57.195Z,96938.76
2018-03-23T01:42:28.819Z,96944.14
2018-03-23T01:43:00.450Z,96933.66
2018-03-23T01:43:32.118Z,96940.05
2018-03-23T01:44:03.746Z,96938.34
2018-03-23T01:44:35.372Z,96937.92
2018-03-23T01:45:06.994Z,96946.58
2018-03-23T01:45:38.622Z,96939.78
2018-03-23T01:46:10.246Z,96931.89
2018-03-23T01:46:41.875Z,96938.75
2018-03-23T01:47:13.498Z,96941.59
2018-03-23T01:47:45.124Z,96942.34
2018-03-23T01:48:16.755Z,96938.69
2018-03-23T01:48:48.410Z,96940.31
2018-03-23T01:49:20.034Z,96937.43
2018-03-23T01:49:51.710Z,96941.67
2018-03-23T01:50:23.339Z,96934.41
2018-03-23T01:50:54.962Z,96939.11
2018-03-23T01:51:26.586Z,96937.84
2018-03-23T01:51:58.210Z,96929.67
2018-03-23T01:52:29.835Z,96935.16
2018-03-23T01:53:01.474Z,96932.88
2018-03-23T01:53:33.103Z,96928.29
2018-03-23T01:54:04.726Z,96932.20
2018-03-23T01:54:36.353Z,96932.14
2018-03-23T01:55:08.023Z,96929.97
2018-03-23T01:55:39.650Z,96929.23
2018-03-23T01:56:11.280Z,96925.81
2018-03-23T01:56:42.905Z,96924.16
2018-03-23T01:57:14.537Z,96929.58
2018-03-23T01:57:46.162Z,96923.46
2018-03-23T01:58:17.791Z,96925.34
2018-03-23T01:58:49.418Z,96921.45
2018-03-23T01:59:21.087Z,96926.14
2018-03-23T01:59:52.722Z,96928.70
2018-03-23T02:00:24.349Z,96926.48
2018-03-23T02:00:55.979Z,96922.66
2018-03-23T02:01:27.645Z,96924.14
2018-03-23T02:01:59.269Z,96928.05
2018-03-23T02:02:30.894Z,96921.28
2018-03-23T02:03:02.522Z,96923.48
2018-03-23T02:03:34.150Z,96916.27
2018-03-23T02:04:05.797Z,96917.22
2018-03-23T02:04:37.422Z,96921.48
2018-03-23T02:05:09.095Z,96915.67
2018-03-23T02:05:40.726Z,96916.39
2018-03-23T02:06:12.354Z,96915.43
2018-03-23T02:06:44.011Z,96917.03
2018-03-23T02:07:15.634Z,96915.41
2018-03-23T02:07:47.306Z,96913.34
2018-03-23T02:08:18.935Z,96914.28
2018-03-23T02:08:50.558Z,96910.95
2018-03-23T02:09:22.187Z,96912.95
2018-03-23T02:09:53.821Z,96908.28
2018-03-23T02:10:25.441Z,96909.18
2018-03-23T02:10:57.070Z,96913.01
2018-03-23T02:11:28.742Z,96913.48
2018-03-23T02:12:00.368Z,96909.03
2018-03-23T02:12:31.998Z,96912.39
2018-03-23T02:13:03.622Z,96913.75
2018-03-23T02:13:35.246Z,96909.89
2018-03-23T02:14:06.874Z,96908.33
2018-03-23T02:14:38.506Z,96908.39
2018-03-23T02:15:10.126Z,96913.83
2018-03-23T02:15:41.750Z,96912.64
2018-03-23T02:16:13.414Z,96914.16
2018-03-23T02:16:45.048Z,96915.08
2018-03-23T02:17:16.673Z,96908.55
2018-03-23T02:17:48.298Z,96906.61
2018-03-23T02:18:19.932Z,96906.28
2018-03-23T02:18:51.567Z,96906.37
2018-03-23T02:19:23.190Z,96907.70
2018-03-23T02:19:54.815Z,96899.89
2018-03-23T02:20:26.447Z,96901.80
2018-03-23T02:20:58.069Z,96904.55
2018-03-23T02:21:29.743Z,96901.56
2018-03-23T02:22:01.370Z,96906.64
2018-03-23T02:22:32.999Z,96899.87
2018-03-23T02:23:04.622Z,96902.92
2018-03-23T02:23:36.251Z,96904.03
2018-03-23T02:24:07.874Z,96898.82
2018-03-23T02:24:39.497Z,96899.77
2018-03-23T02:25:11.127Z,96902.75
2018-03-23T02:25:42.798Z,96893.72
2018-03-23T02:26:14.423Z,96903.61
2018-03-23T02:26:46.046Z,96903.61
2018-03-23T02:27:17.682Z,96899.39
2018-03-23T02:27:49.306Z,96903.23
2018-03-23T02:28:20.938Z,96900.60
2018-03-23T02:28:52.567Z,96899.00
2018-03-23T02:29:24.190Z,96898.16
2018-03-23T02:29:55.821Z,96898.07
2018-03-23T02:30:27.463Z,96896.76
2018-03-23T02:30:59.154Z,96900.93
2018-03-23T02:31:30.814Z,96895.94
2018-03-23T02:32:02.452Z,96896.76
2018-03-23T02:32:34.080Z,96891.22
2018-03-23T02:33:05.711Z,96890.41
2018-03-23T02:33:37.347Z,96886.50
2018-03-23T02:34:08.978Z,96886.16
2018-03-23T02:34:40.602Z,96890.33
2018-03-23T02:35:12.227Z,96887.85
2018-03-23T02:35:43.852Z,96890.84
2018-03-23T02:36:15.530Z,96891.34
2018-03-23T02:36:47.159Z,96894.25
2018-03-23T02:37:18.786Z,96889.98
2018-03-23T02:37:50.409Z,96891.70
2018-03-23T02:38:22.039Z,96894.35
2018-03-23T02:38:53.675Z,96885.09
2018-03-23T02:39:25.321Z,96882.11
2018-03-23T02:39:56.951Z,96885.52
2018-03-23T02:40:28.589Z,96883.83
2018-03-23T02:41:00.211Z,96881.98
2018-03-23T02:41:31.834Z,96881.22
2018-03-23T02:42:03.463Z,96880.27
2018-03-23T02:42:35.091Z,96885.09
2018-03-23T02:43:06.750Z,96886.70
2018-03-23T02:43:38.374Z,96887.59
2018-03-23T02:44:10.015Z,96883.78
2018-03-23T02:44:41.645Z,96881.67
2018-03-23T02:45:13.271Z,96887.61
2018-03-23T02:45:44.938Z,96885.43
2018-03-23T02:46:16.563Z,96880.81
2018-03-23T02:46:48.190Z,96887.19
2018-03-23T02:47:19.815Z,96888.16
2018-03-23T02:47:51.442Z,96881.89
2018-03-23T02:48:23.069Z,96881.38
2018-03-23T02:48:54.700Z,96882.55
2018-03-23T02:49:26.375Z,96881.27
2018-03-23T02:49:58.010Z,96881.23
2018-03-23T02:50:29.640Z,96878.30
2018-03-23T02:51:01.263Z,96874.20
2018-03-23T02:51:32.896Z,96880.47
2018-03-23T02:52:04.519Z,96879.97
2018-03-23T02:52:36.159Z,96878.30
2018-03-23T02:53:07.807Z,96874.90
2018-03-23T02:53:39.435Z,96876.16
2018-03-23T02:54:11.063Z,96878.18
2018-03-23T02:54:42.733Z,96878.92
2018-03-23T02:55:14.362Z,96876.14
2018-03-23T02:55:46.034Z,96875.30
2018-03-23T02:56:17.664Z,96876.91
2018-03-23T02:56:49.294Z,96874.27
2018-03-23T02:57:20.918Z,96872.90
2018-03-23T02:57:52.549Z,96870.82
2018-03-23T02:58:24.174Z,96873.31
2018-03-23T02:58:55.806Z,96871.51
2018-03-23T02:59:27.436Z,96874.81
2018-03-23T02:59:59.062Z,96871.53
2018-03-23T03:00:30.729Z,96872.46
2018-03-23T03:01:02.377Z,96872.89
2018-03-23T03:01:34.011Z,96876.23
2018-03-23T03:02:05.642Z,96876.55
2018-03-23T03:02:37.266Z,96879.53
2018-03-23T03:03:08.894Z,96879.53
2018-03-23T03:03:40.518Z,96878.23
2018-03-23T03:04:12.163Z,96874.41
2018-03-23T03:04:43.789Z,96876.08
2018-03-23T03:05:15.455Z,96877.70
2018-03-23T03:05:47.086Z,96871.31
2018-03-23T03:06:19.755Z,96870.16
2018-03-23T03:06:51.379Z,96868.34
2018-03-23T03:07:23.014Z,96876.36
2018-03-23T03:07:54.638Z,96869.70
2018-03-23T03:08:26.270Z,96872.36
2018-03-23T03:08:57.898Z,96873.59
2018-03-23T03:09:29.523Z,96872.90
2018-03-23T03:10:01.195Z,96872.70
2018-03-23T03:10:32.817Z,96875.27
2018-03-23T03:11:04.446Z,96869.70
2018-03-23T03:11:36.078Z,96869.70
2018-03-23T03:12:07.706Z,96870.71
2018-03-23T03:12:39.333Z,96869.49
2018-03-23T03:13:10.967Z,96870.34
2018-03-23T03:13:42.591Z,96873.01
2018-03-23T03:14:14.222Z,96869.08
2018-03-23T03:14:45.889Z,96870.77
2018-03-23T03:15:17.514Z,96864.50
2018-03-23T03:15:49.143Z,96870.19
2018-03-23T03:16:20.779Z,96869.44
2018-03-23T03:16:52.433Z,96865.70
2018-03-23T03:17:24.062Z,96864.46
2018-03-23T03:17:55.723Z,96864.53
2018-03-23T03:18:27.365Z,96873.03
2018-03-23T03:18:58.994Z,96869.36
2018-03-23T03:19:30.661Z,96865.94
2018-03-23T03:20:02.286Z,96868.09
2018-03-23T03:20:33.954Z,96864.88
2018-03-23T03:21:05.583Z,96866.39
2018-03-23T03:21:37.254Z,96863.43
2018-03-23T03:22:08.879Z,96865.58
2018-03-23T03:22:40.501Z,96864.32
2018-03-23T03:23:12.130Z,96860.55
2018-03-23T03:23:43.761Z,96866.54
2018-03-23T03:24:15.390Z,96858.61
2018-03-23T03:24:47.058Z,96858.63
2018-03-23T03:25:18.691Z,96858.14
2018-03-23T03:25:50.322Z,96855.14
2018-03-23T03:26:21.942Z,96853.37
2018-03-23T03:26:53.713Z,96854.61
2018-03-23T03:27:25.394Z,96856.75
2018-03-23T03:27:57.018Z,96856.20
2018-03-23T03:28:28.642Z,96852.00
2018-03-23T03:29:00.275Z,96853.70
2018-03-23T03:29:31.902Z,96853.14
2018-03-23T03:30:03.528Z,96855.95
2018-03-23T03:30:35.154Z,96850.52
2018-03-23T03:31:06.787Z,96852.66
2018-03-23T03:31:38.419Z,96843.06
2018-03-23T03:32:10.051Z,96847.98
2018-03-23T03:32:41.718Z,96849.63
2018-03-23T03:33:13.342Z,96850.84
2018-03-23T03:33:44.966Z,96844.97
2018-03-23T03:34:16.619Z,96850.38
2018-03-23T03:34:48.246Z,96850.29
2018-03-23T03:35:19.866Z,96851.88
2018-03-23T03:35:51.495Z,96847.17
2018-03-23T03:36:23.119Z,96848.80
2018-03-23T03:36:54.742Z,96845.41
2018-03-23T03:37:26.414Z,96847.88
2018-03-23T03:37:58.041Z,96850.24
2018-03-23T03:38:29.666Z,96851.17
2018-03-23T03:39:01.294Z,96844.72
2018-03-23T03:39:32.951Z,96849.45
2018-03-23T03:40:04.585Z,96846.84
2018-03-23T03:40:36.210Z,96851.52
2018-03-23T03:41:07.839Z,96852.75
2018-03-23T03:41:39.462Z,96847.88
2018-03-23T03:42:11.090Z,96848.78
2018-03-23T03:42:42.777Z,96846.22
2018-03-23T03:43:14.406Z,96847.40
2018-03-23T03:43:46.031Z,96849.95
2018-03-23T03:44:17.654Z,96837.63
2018-03-23T03:44:49.284Z,96841.78
2018-03-23T03:45:20.910Z,96842.44
2018-03-23T03:45:52.539Z,96847.92
2018-03-23T03:46:24.162Z,96835.30
2018-03-23T03:46:55.792Z,96843.51
2018-03-23T03:47:27.422Z,96839.36
2018-03-23T03:47:59.046Z,96840.19
2018-03-23T03:48:30.674Z,96842.25
2018-03-23T03:49:02.314Z,96840.95
2018-03-23T03:49:33.948Z,96838.69
2018-03-23T03:50:05.570Z,96839.27
2018-03-23T03:50:37.194Z,96838.37
2018-03-23T03:51:08.826Z,96839.36
2018-03-23T03:51:40.455Z,96821.88
2018-03-23T03:52:12.086Z,96841.40
2018-03-23T03:52:43.718Z,96842.54
2018-03-23T03:53:15.390Z,96839.57
2018-03-23T03:53:47.014Z,96842.03
2018-03-23T03:54:18.693Z,96837.00
2018-03-23T03:54:50.326Z,96843.88
2018-03-23T03:55:21.949Z,96839.57
2018-03-23T03:55:53.569Z,96837.67
2018-03-23T03:56:25.194Z,96843.17
2018-03-23T03:56:56.822Z,96841.59
2018-03-23T03:57:28.458Z,96839.13
2018-03-23T03:58:00.082Z,96841.03
2018-03-23T03:58:31.709Z,96837.44
2018-03-23T03:59:03.331Z,96840.84
2018-03-23T03:59:35.002Z,96836.39
2018-03-23T04:00:06.670Z,96843.09
2018-03-23T04:00:38.298Z,96838.91
2018-03-23T04:01:09.922Z,96841.89
2018-03-23T04:01:41.578Z,96836.81
2018-03-23T04:02:13.203Z,96838.00
2018-03-23T04:02:44.830Z,96837.97
2018-03-23T04:03:16.450Z,96828.74
2018-03-23T04:03:48.074Z,96841.03
2018-03-23T04:04:19.697Z,96834.47
2018-03-23T04:04:51.323Z,96828.91
2018-03-23T04:05:22.959Z,96831.83
2018-03-23T04:05:54.590Z,96834.05
2018-03-23T04:06:26.214Z,96831.41
2018-03-23T04:06:57.842Z,96840.41
2018-03-23T04:07:29.463Z,96832.64
2018-03-23T04:08:01.091Z,96831.48
2018-03-23T04:08:32.717Z,96841.61
2018-03-23T04:09:04.342Z,96834.45
2018-03-23T04:09:35.966Z,96836.58
2018-03-23T04:10:07.595Z,96834.49
2018-03-23T04:10:39.218Z,96831.69
2018-03-23T04:11:10.847Z,96837.58
2018-03-23T04:11:42.513Z,96835.82
2018-03-23T04:12:14.147Z,96836.19
2018-03-23T04:12:45.774Z,96840.50
2018-03-23T04:13:17.402Z,96835.35
2018-03-23T04:13:49.070Z,96831.99
2018-03-23T04:14:20.699Z,96833.31
2018-03-23T04:14:52.331Z,96837.52
2018-03-23T04:15:23.977Z,96834.24
2018-03-23T04:15:55.602Z,96838.53
2018-03-23T04:16:27.227Z,96835.88
2018-03-23T04:16:58.897Z,96836.47
2018-03-23T04:17:30.526Z,96832.05
2018-03-23T04:18:02.154Z,96835.44
2018-03-23T04:18:33.781Z,96839.34
2018-03-23T04:19:05.405Z,96838.97
2018-03-23T04:19:37.062Z,96838.48
2018-03-23T04:20:08.693Z,96837.95
2018-03-23T04:20:40.318Z,96836.56
2018-03-23T04:21:11.938Z,96839.65
2018-03-23T04:21:43.561Z,96834.17
2018-03-23T04:22:15.229Z,96838.41
2018-03-23T04:22:46.858Z,96834.58
2018-03-23T04:23:18.490Z,96835.88
2018-03-23T04:23:50.114Z,96837.30
2018-03-23T04:24:21.736Z,96836.16
2018-03-23T04:24:53.366Z,96836.06
2018-03-23T04:25:24.990Z,96839.47
2018-03-23T04:25:56.618Z,96843.94
2018-03-23T04:26:28.242Z,96835.33
2018-03-23T04:26:59.865Z,96838.97
2018-03-23T04:27:31.498Z,96834.27
2018-03-23T04:28:03.127Z,96830.83
2018-03-23T04:28:34.749Z,96833.10
2018-03-23T04:29:06.376Z,96830.98
2018-03-23T04:29:38.017Z,96830.45
2018-03-23T04:30:09.638Z,96827.91
2018-03-23T04:30:41.258Z,96830.73
2018-03-23T04:31:12.882Z,96833.75
2018-03-23T04:31:44.506Z,96830.85
2018-03-23T04:32:16.130Z,96828.00
2018-03-23T04:32:47.807Z,96832.27
2018-03-23T04:33:19.433Z,96830.11
2018-03-23T04:33:51.054Z,96831.48
2018-03-23T04:34:22.686Z,96826.47
2018-03-23T04:34:54.314Z,96828.72
2018-03-23T04:35:25.942Z,96835.82
2018-03-23T04:35:57.574Z,96827.42
2018-03-23T04:36:29.202Z,96832.43
2018-03-23T04:37:00.826Z,96826.47
2018-03-23T04:37:32.458Z,96822.89
2018-03-23T04:38:04.127Z,96827.42
2018-03-23T04:38:35.758Z,96819.14
2018-03-23T04:39:07.430Z,96820.09
2018-03-23T04:39:39.083Z,96825.35
2018-03-23T04:40:10.711Z,96825.45
2018-03-23T04:40:42.334Z,96819.93
2018-03-23T04:41:13.962Z,96823.34
2018-03-23T04:41:45.594Z,96817.89
2018-03-23T04:42:17.218Z,96825.83
2018-03-23T04:42:48.846Z,96818.62
2018-03-23T04:43:20.478Z,96820.42
2018-03-23T04:43:52.106Z,96820.88
2018-03-23T04:44:23.769Z,96822.69
2018-03-23T04:44:55.394Z,96826.49
2018-03-23T04:45:27.018Z,96819.26
2018-03-23T04:45:58.646Z,96825.23
2018-03-23T04:46:30.277Z,96824.57
2018-03-23T04:47:01.905Z,96830.92
2018-03-23T04:47:33.590Z,96824.08
2018-03-23T04:48:05.213Z,96827.98
2018-03-23T04:48:36.834Z,96826.30
2018-03-23T04:49:08.461Z,96822.98
2018-03-23T04:49:40.102Z,96829.69
2018-03-23T04:50:11.754Z,96825.84
2018-03-23T04:50:43.382Z,96822.00
2018-03-23T04:51:15.014Z,96822.48
2018-03-23T04:51:46.641Z,96819.51
2018-03-23T04:52:18.271Z,96822.02
2018-03-23T04:52:49.942Z,96824.17
2018-03-23T04:53:21.566Z,96819.47
2018-03-23T04:53:53.194Z,96822.78
2018-03-23T04:54:24.822Z,96823.09
2018-03-23T04:54:56.454Z,96822.97
2018-03-23T04:55:28.078Z,96820.65
2018-03-23T04:55:59.702Z,96822.87
2018-03-23T04:56:31.322Z,96818.38
2018-03-23T04:57:02.960Z,96826.74
2018-03-23T04:57:34.586Z,96825.45
2018-03-23T04:58:06.266Z,96825.10
2018-03-23T04:58:37.901Z,96824.25
2018-03-23T04:59:09.539Z,96826.72
2018-03-23T04:59:41.186Z,96825.87
2018-03-23T05:00:12.814Z,96823.27
2018-03-23T05:00:44.438Z,96825.43
2018-03-23T05:01:16.095Z,96832.22
2018-03-23T05:01:47.755Z,96830.97
2018-03-23T05:02:19.382Z,96830.09
2018-03-23T05:02:51.014Z,96824.66
2018-03-23T05:03:22.707Z,96829.77
2018-03-23T05:03:54.330Z,96828.00
2018-03-23T05:04:25.980Z,96812.60
2018-03-23T05:04:58.503Z,96822.53
2018-03-23T05:05:30.255Z,96830.58
2018-03-23T05:06:01.887Z,96826.91
2018-03-23T05:06:34.194Z,96827.79
2018-03-23T05:07:05.826Z,96826.95
2018-03-23T05:07:37.530Z,96814.46
2018-03-23T05:08:09.865Z,96827.31
2018-03-23T05:08:41.538Z,96826.21
2018-03-23T05:09:13.165Z,96825.41
2018-03-23T05:09:44.799Z,96821.73
2018-03-23T05:10:16.450Z,96825.66
2018-03-23T05:10:48.079Z,96824.88
2018-03-23T05:11:19.703Z,96824.49
2018-03-23T05:11:51.325Z,96817.12
2018-03-23T05:12:22.946Z,96820.59
2018-03-23T05:12:54.575Z,96823.58
2018-03-23T05:13:26.203Z,96822.83
2018-03-23T05:13:57.870Z,96821.65
2018-03-23T05:14:29.494Z,96825.47
2018-03-23T05:15:01.118Z,96821.09
2018-03-23T05:15:32.743Z,96818.75
2018-03-23T05:16:04.371Z,96829.80
2018-03-23T05:16:36.000Z,96825.59
2018-03-23T05:17:07.635Z,96823.85
2018-03-23T05:17:39.263Z,96826.00
2018-03-23T05:18:10.890Z,96822.27
2018-03-23T05:18:42.514Z,96827.48
2018-03-23T05:19:14.137Z,96829.21
2018-03-23T05:19:45.766Z,96826.24
2018-03-23T05:20:17.402Z,96826.84
2018-03-23T05:20:49.026Z,96824.73
2018-03-23T05:21:20.658Z,96823.13
2018-03-23T05:21:52.294Z,96825.17
2018-03-23T05:22:23.923Z,96823.88
2018-03-23T05:22:55.610Z,96821.30
2018-03-23T05:23:27.234Z,96828.41
2018-03-23T05:23:58.865Z,96828.27
2018-03-23T05:24:30.670Z,96828.16
2018-03-23T05:25:02.294Z,96827.28
2018-03-23T05:25:33.918Z,96822.16
2018-03-23T05:26:05.542Z,96827.59
2018-03-23T05:26:37.166Z,96825.93
2018-03-23T05:27:08.798Z,96830.05
2018-03-23T05:27:40.430Z,96827.91
2018-03-23T05:28:12.058Z,96833.03
2018-03-23T05:28:43.682Z,96830.05
2018-03-23T05:29:15.315Z,96827.36
2018-03-23T05:29:47.078Z,96824.02
2018-03-23T05:30:18.703Z,96824.85
2018-03-23T05:30:50.331Z,96824.42
2018-03-23T05:31:22.374Z,96817.21
2018-03-23T05:31:54.029Z,96802.64
2018-03-23T05:32:25.772Z,96821.78
2018-03-23T05:32:57.455Z,96820.97
2018-03-23T05:33:29.150Z,96822.52
2018-03-23T05:34:00.783Z,96828.92
2018-03-23T05:34:32.410Z,96822.02
2018-03-23T05:35:04.038Z,96825.67
2018-03-23T05:35:35.671Z,96824.80
2018-03-23T05:36:07.417Z,96826.59
2018-03-23T05:36:39.234Z,96827.33
2018-03-23T05:37:10.866Z,96822.16
2018-03-23T05:37:42.504Z,96821.72
2018-03-23T05:38:14.126Z,96820.77
2018-03-23T05:38:45.750Z,96822.89
2018-03-23T05:39:17.426Z,96819.38
2018-03-23T05:39:49.062Z,96825.77
2018-03-23T05:40:20.688Z,96819.83
2018-03-23T05:40:52.329Z,96824.48
2018-03-23T05:41:23.954Z,96822.58
2018-03-23T05:41:55.574Z,96822.69
2018-03-23T05:42:27.193Z,96825.62
2018-03-23T05:42:58.814Z,96819.70
2018-03-23T05:43:30.443Z,96819.70
2018-03-23T05:44:02.066Z,96819.70
2018-03-23T05:44:33.690Z,96818.66
2018-03-23T05:45:05.315Z,96825.94
2018-03-23T05:45:36.937Z,96814.20
2018-03-23T05:46:08.604Z,96813.11
2018-03-23T05:46:40.241Z,96823.52
2018-03-23T05:47:11.876Z,96823.87
2018-03-23T05:47:43.510Z,96813.18
2018-03-23T05:48:15.137Z,96819.58
2018-03-23T05:48:46.777Z,96817.79
2018-03-23T05:49:18.402Z,96818.20
2018-03-23T05:49:50.086Z,96817.81
2018-03-23T05:50:21.710Z,96819.14
2018-03-23T05:50:53.350Z,96827.14
2018-03-23T05:51:25.022Z,96817.05
2018-03-23T05:51:56.650Z,96817.86
2018-03-23T05:52:28.274Z,96821.71
2018-03-23T05:52:59.899Z,96821.73
2018-03-23T05:53:31.527Z,96818.30
2018-03-23T05:54:03.153Z,96817.34
2018-03-23T05:54:34.778Z,96814.52
2018-03-23T05:55:06.406Z,96813.18
2018-03-23T05:55:38.128Z,96814.70
2018-03-23T05:56:09.778Z,96811.30
2018-03-23T05:56:41.410Z,96810.65
2018-03-23T05:57:13.038Z,96814.94
2018-03-23T05:57:44.662Z,96808.40
2018-03-23T05:58:16.349Z,96816.00
2018-03-23T05:58:47.977Z,96811.70
2018-03-23T05:59:19.598Z,96813.52
2018-03-23T05:59:51.346Z,96816.52
2018-03-23T06:00:23.052Z,96815.66
2018-03-23T06:00:54.683Z,96818.30
2018-03-23T06:01:26.321Z,96815.35
2018-03-23T06:01:58.064Z,96817.75
2018-03-23T06:02:29.689Z,96814.45
2018-03-23T06:03:01.322Z,96822.98
2018-03-23T06:03:32.955Z,96811.91
2018-03-23T06:04:04.750Z,96822.31
2018-03-23T06:04:36.391Z,96822.63
2018-03-23T06:05:08.050Z,96814.27
2018-03-23T06:05:39.677Z,96820.96
2018-03-23T06:06:11.338Z,96817.69
2018-03-23T06:06:42.966Z,96820.13
2018-03-23T06:07:14.641Z,96820.87
2018-03-23T06:07:46.266Z,96822.56
2018-03-23T06:08:17.890Z,96821.42
2018-03-23T06:08:49.518Z,96822.66
2018-03-23T06:09:21.149Z,96818.88
2018-03-23T06:09:52.779Z,96817.11
2018-03-23T06:10:24.407Z,96821.80
2018-03-23T06:10:56.039Z,96821.82
2018-03-23T06:11:27.738Z,96813.11